Time;durP1;ratioP1;P1;durP2;ratioP2;P2;SDS_P1;SDS_P2;PMS_P1;PMS_P2;Temp;Humidity;BMP_temperature;BMP_pressure;BME280_temperature;BME280_humidity;BME280_pressure;Samples;Min_cycle;Max_cycle;Signal;HPM_P1;HPM_P2
2023/11/30 00:02:04;;;;;;;56.10;3.15;;;;;;;;;;5053615;28;20229;-71
2023/11/30 00:04:31;;;;;;;56.00;2.70;;;;;;;;;;5054198;28;20203;-71
2023/11/30 00:06:58;;;;;;;55.90;2.72;;;;;;;;;;5055420;28;20221;-71
2023/11/30 00:09:25;;;;;;;55.85;2.85;;;;;;;;;;5054137;28;20209;-71
2023/11/30 00:11:52;;;;;;;56.10;2.70;;;;;;;;;;5054725;28;20226;-71
2023/11/30 00:14:20;;;;;;;56.00;2.90;;;;;;;;;;5054203;28;20211;-73
2023/11/30 00:16:47;;;;;;;56.00;3.10;;;;;;;;;;5054514;28;20630;-71
2023/11/30 00:19:14;;;;;;;56.10;2.60;;;;;;;;;;5054243;28;20219;-71
2023/11/30 00:21:42;;;;;;;56.40;3.80;;;;;;;;;;5053590;28;20226;-71
2023/11/30 00:24:09;;;;;;;56.05;3.03;;;;;;;;;;5053502;28;20212;-71
2023/11/30 00:26:36;;;;;;;57.72;3.25;;;;;;;;;;5053938;28;20216;-71
2023/11/30 00:29:03;;;;;;;56.08;3.15;;;;;;;;;;5053624;28;20493;-71
2023/11/30 00:31:31;;;;;;;56.22;3.28;;;;;;;;;;5053158;28;20206;-71
2023/11/30 00:33:58;;;;;;;56.08;2.70;;;;;;;;;;5053749;28;20207;-71
2023/11/30 00:36:25;;;;;;;56.17;3.00;;;;;;;;;;5052906;28;20213;-71
2023/11/30 00:38:52;;;;;;;56.53;3.80;;;;;;;;;;5053022;28;20242;-71
2023/11/30 00:41:19;;;;;;;56.08;3.08;;;;;;;;;;5052948;28;20203;-71
2023/11/30 00:43:47;;;;;;;55.88;2.63;;;;;;;;;;5053624;28;20412;-71
2023/11/30 00:46:16;;;;;;;56.00;2.70;;;;;;;;;;5053618;28;20294;-71
2023/11/30 00:48:45;;;;;;;56.35;3.42;;;;;;;;;;5053778;28;20207;-71
2023/11/30 00:51:12;;;;;;;55.78;2.80;;;;;;;;;;5053312;28;20229;-71
2023/11/30 00:53:39;;;;;;;57.30;3.60;;;;;;;;;;5053256;28;20230;-71
2023/11/30 00:56:07;;;;;;;56.25;3.17;;;;;;;;;;5053359;28;20205;-71
2023/11/30 00:58:34;;;;;;;56.10;2.72;;;;;;;;;;5053757;28;20577;-71
2023/11/30 01:01:01;;;;;;;56.03;2.60;;;;;;;;;;5053683;28;20226;-71
2023/11/30 01:03:28;;;;;;;56.08;2.90;;;;;;;;;;5053233;28;20817;-71
2023/11/30 01:05:57;;;;;;;56.00;2.70;;;;;;;;;;5052614;28;20207;-71
2023/11/30 01:08:24;;;;;;;56.13;3.00;;;;;;;;;;5052726;28;20233;-71
2023/11/30 01:10:51;;;;;;;56.80;3.97;;;;;;;;;;5051960;28;20206;-71
2023/11/30 01:13:18;;;;;;;55.97;3.30;;;;;;;;;;5053309;28;20226;-71
2023/11/30 01:15:45;;;;;;;56.33;3.05;;;;;;;;;;5053527;28;20213;-71
2023/11/30 01:18:12;;;;;;;63.80;4.05;;;;;;;;;;5045192;28;20293;-71
2023/11/30 01:20:39;;;;;;;56.00;2.92;;;;;;;;;;5052938;28;20242;-71
2023/11/30 01:23:08;;;;;;;59.85;4.07;;;;;;;;;;5053116;28;20591;-71
2023/11/30 01:25:35;;;;;;;56.97;3.83;;;;;;;;;;5052873;28;20210;-71
2023/11/30 01:28:03;;;;;;;56.25;3.47;;;;;;;;;;5055461;28;20210;-71
2023/11/30 01:30:30;;;;;;;56.20;3.05;;;;;;;;;;5057698;28;20207;-71
2023/11/30 01:32:57;;;;;;;56.15;2.95;;;;;;;;;;5058359;28;20378;-71
2023/11/30 01:35:28;;;;;;;56.10;2.90;;;;;;;;;;5058846;28;20213;-71
2023/11/30 01:37:55;;;;;;;56.15;3.17;;;;;;;;;;5056004;28;20202;-69
2023/11/30 01:40:24;;;;;;;56.28;3.03;;;;;;;;;;5051594;28;20231;-71
2023/11/30 01:42:51;;;;;;;56.25;3.00;;;;;;;;;;5052232;28;20226;-71
2023/11/30 01:45:18;;;;;;;56.03;2.60;;;;;;;;;;5052350;28;20206;-71
2023/11/30 01:47:46;;;;;;;56.47;3.78;;;;;;;;;;5052587;28;20211;-71
2023/11/30 01:50:13;;;;;;;56.20;2.90;;;;;;;;;;5052175;28;20205;-71
2023/11/30 01:52:41;;;;;;;56.17;3.08;;;;;;;;;;5052643;28;20230;-71
2023/11/30 01:55:09;;;;;;;55.95;3.00;;;;;;;;;;5052355;28;20213;-71
2023/11/30 01:57:37;;;;;;;56.40;3.03;;;;;;;;;;5052310;28;20225;-71
2023/11/30 02:00:05;;;;;;;56.08;2.80;;;;;;;;;;5051751;28;20695;-71
2023/11/30 02:02:32;;;;;;;56.20;3.15;;;;;;;;;;5051931;28;20234;-71
2023/11/30 02:05:00;;;;;;;57.42;3.88;;;;;;;;;;5051839;28;20206;-71
2023/11/30 02:07:27;;;;;;;56.00;3.00;;;;;;;;;;5051699;28;20207;-71
2023/11/30 02:09:54;;;;;;;56.08;3.30;;;;;;;;;;5051864;28;20218;-71
2023/11/30 02:12:21;;;;;;;56.22;3.05;;;;;;;;;;5051657;28;20226;-71
2023/11/30 02:14:49;;;;;;;56.40;4.07;;;;;;;;;;5051827;28;20215;-71
2023/11/30 02:17:16;;;;;;;56.58;3.95;;;;;;;;;;5042484;28;20203;-71
2023/11/30 02:19:43;;;;;;;55.97;3.25;;;;;;;;;;5051878;28;20702;-71
2023/11/30 02:22:12;;;;;;;55.95;2.83;;;;;;;;;;5051570;28;20226;-71
2023/11/30 02:24:39;;;;;;;60.25;3.33;;;;;;;;;;5051865;28;20211;-71
2023/11/30 02:27:06;;;;;;;56.10;2.90;;;;;;;;;;5051688;28;20381;-71
2023/11/30 02:29:34;;;;;;;56.00;3.30;;;;;;;;;;5051248;28;20261;-71
2023/11/30 02:32:01;;;;;;;56.60;3.90;;;;;;;;;;5050876;28;20238;-71
2023/11/30 02:34:28;;;;;;;56.20;2.90;;;;;;;;;;5051751;28;20582;-71
2023/11/30 02:36:55;;;;;;;56.20;2.95;;;;;;;;;;5051437;28;20202;-71
2023/11/30 02:39:23;;;;;;;56.40;3.97;;;;;;;;;;5051683;28;20203;-71
2023/11/30 02:41:50;;;;;;;55.97;2.63;;;;;;;;;;5052141;28;20738;-71
2023/11/30 02:44:17;;;;;;;56.00;2.70;;;;;;;;;;5052000;28;20202;-71
2023/11/30 02:46:44;;;;;;;55.90;2.70;;;;;;;;;;5051449;28;20210;-71
2023/11/30 02:49:11;;;;;;;55.70;2.70;;;;;;;;;;5051649;28;20237;-71
2023/11/30 02:51:39;;;;;;;56.00;2.90;;;;;;;;;;5051491;28;20218;-71
2023/11/30 02:54:06;;;;;;;56.20;3.20;;;;;;;;;;5051697;28;20449;-71
2023/11/30 02:56:39;;;;;;;57.33;3.58;;;;;;;;;;5051665;28;20228;-71
2023/11/30 02:59:06;;;;;;;56.20;2.65;;;;;;;;;;5051732;28;20211;-71
2023/11/30 03:01:33;;;;;;;55.90;2.60;;;;;;;;;;5050992;28;20229;-71
2023/11/30 03:04:00;;;;;;;55.97;2.70;;;;;;;;;;5051165;28;20206;-71
2023/11/30 03:06:27;;;;;;;56.58;3.00;;;;;;;;;;5051188;28;20210;-71
2023/11/30 03:08:54;;;;;;;55.80;2.78;;;;;;;;;;5050941;28;20225;-71
2023/11/30 03:11:21;;;;;;;56.10;3.70;;;;;;;;;;5051181;28;20202;-72
2023/11/30 03:13:50;;;;;;;56.10;2.70;;;;;;;;;;5051098;28;20210;-71
2023/11/30 03:16:23;;;;;;;56.17;3.28;;;;;;;;;;5050956;28;20671;-71
2023/11/30 03:18:51;;;;;;;55.97;2.80;;;;;;;;;;5051329;28;20207;-71
2023/11/30 03:21:18;;;;;;;56.00;2.78;;;;;;;;;;5051040;28;20226;-71
2023/11/30 03:23:45;;;;;;;55.90;2.70;;;;;;;;;;5051143;28;20579;-71
2023/11/30 03:26:12;;;;;;;55.88;2.50;;;;;;;;;;5051174;28;20208;-71
2023/11/30 03:28:39;;;;;;;56.00;2.70;;;;;;;;;;5050360;28;20231;-71
2023/11/30 03:31:08;;;;;;;56.17;3.05;;;;;;;;;;5050576;28;20212;-71
2023/11/30 03:33:35;;;;;;;57.55;4.10;;;;;;;;;;5050623;28;20223;-71
2023/11/30 03:36:02;;;;;;;55.95;2.75;;;;;;;;;;5050053;28;20206;-71
2023/11/30 03:38:29;;;;;;;56.20;3.45;;;;;;;;;;5051138;28;20203;-71
2023/11/30 03:40:56;;;;;;;56.10;2.70;;;;;;;;;;5050526;28;20605;-71
2023/11/30 03:43:24;;;;;;;56.40;4.18;;;;;;;;;;5050857;28;20225;-71
2023/11/30 03:45:51;;;;;;;55.88;2.90;;;;;;;;;;5050636;28;20205;-70
2023/11/30 03:48:19;;;;;;;56.22;3.15;;;;;;;;;;5050539;28;20203;-70
2023/11/30 03:50:46;;;;;;;56.28;3.53;;;;;;;;;;5051088;28;20209;-70
2023/11/30 03:53:13;;;;;;;56.17;2.90;;;;;;;;;;5050159;28;20226;-70
2023/11/30 03:55:40;;;;;;;56.50;3.80;;;;;;;;;;5050572;28;20207;-70
2023/11/30 03:58:07;;;;;;;56.15;2.97;;;;;;;;;;5050648;28;20659;-70
2023/11/30 04:00:35;;;;;;;56.10;2.95;;;;;;;;;;5050858;28;20223;-70
2023/11/30 04:03:02;;;;;;;56.20;3.15;;;;;;;;;;5050859;28;20231;-70
2023/11/30 04:05:30;;;;;;;56.10;2.88;;;;;;;;;;5050875;28;20217;-70
2023/11/30 04:08:00;;;;;;;56.25;3.00;;;;;;;;;;5049970;28;20659;-70
2023/11/30 04:10:27;;;;;;;55.85;2.70;;;;;;;;;;5050499;28;20216;-71
2023/11/30 04:12:54;;;;;;;56.10;3.03;;;;;;;;;;5050903;28;20229;-70
2023/11/30 04:15:21;;;;;;;55.95;2.65;;;;;;;;;;5050381;28;20276;-70
2023/11/30 04:17:49;;;;;;;56.08;3.20;;;;;;;;;;5050674;28;20206;-70
2023/11/30 04:20:16;;;;;;;56.10;3.20;;;;;;;;;;5050549;28;20648;-70
2023/11/30 04:22:44;;;;;;;55.97;2.92;;;;;;;;;;5050245;28;20237;-70
2023/11/30 04:25:11;;;;;;;55.67;2.63;;;;;;;;;;5050129;28;20582;-70
2023/11/30 04:27:38;;;;;;;56.00;3.20;;;;;;;;;;5049458;28;20203;-70
2023/11/30 04:30:06;;;;;;;55.80;2.60;;;;;;;;;;5050117;28;20207;-70
2023/11/30 04:32:33;;;;;;;56.58;3.80;;;;;;;;;;5050604;28;20231;-70
2023/11/30 04:35:00;;;;;;;55.83;2.60;;;;;;;;;;5049952;28;20206;-71
2023/11/30 04:37:27;;;;;;;56.10;2.83;;;;;;;;;;5050142;28;20199;-70
2023/11/30 04:39:55;;;;;;;56.08;2.70;;;;;;;;;;5050276;28;20211;-70
2023/11/30 04:42:22;;;;;;;56.00;3.00;;;;;;;;;;5052930;28;20706;-70
2023/11/30 04:44:50;;;;;;;56.00;3.25;;;;;;;;;;5053580;28;20207;-70
2023/11/30 04:47:17;;;;;;;57.03;4.18;;;;;;;;;;5054187;28;20574;-70
2023/11/30 04:49:44;;;;;;;56.10;2.80;;;;;;;;;;5053974;28;20559;-70
2023/11/30 04:52:11;;;;;;;55.78;2.70;;;;;;;;;;5053940;28;20219;-70
2023/11/30 04:54:38;;;;;;;55.90;2.50;;;;;;;;;;5053780;28;20207;-71
2023/11/30 04:57:07;;;;;;;55.70;2.50;;;;;;;;;;5053989;28;20203;-71
2023/11/30 04:59:34;;;;;;;56.10;3.40;;;;;;;;;;5053494;28;20592;-71
2023/11/30 05:02:01;;;;;;;55.80;2.88;;;;;;;;;;5053488;28;20618;-71
2023/11/30 05:04:28;;;;;;;55.88;2.83;;;;;;;;;;5053409;28;20206;-71
2023/11/30 05:06:55;;;;;;;55.67;2.78;;;;;;;;;;5053607;28;20218;-71
2023/11/30 05:09:22;;;;;;;55.88;2.60;;;;;;;;;;5053316;28;20437;-71
2023/11/30 05:11:49;;;;;;;55.90;3.28;;;;;;;;;;5053604;28;20227;-71
2023/11/30 05:14:17;;;;;;;55.85;2.72;;;;;;;;;;5053438;28;20689;-71
2023/11/30 05:16:45;;;;;;;55.80;3.45;;;;;;;;;;5053126;28;20221;-71
2023/11/30 05:19:12;;;;;;;56.00;2.70;;;;;;;;;;5053204;28;20210;-71
2023/11/30 05:21:39;;;;;;;56.10;3.45;;;;;;;;;;5052248;28;20226;-71
2023/11/30 05:24:06;;;;;;;56.38;3.08;;;;;;;;;;5053278;28;20234;-71
2023/11/30 05:26:33;;;;;;;56.00;2.70;;;;;;;;;;5052739;28;20214;-71
2023/11/30 05:29:00;;;;;;;56.00;2.60;;;;;;;;;;5052364;28;20214;-71
2023/11/30 05:31:28;;;;;;;56.00;2.80;;;;;;;;;;5052607;28;20220;-71
2023/11/30 05:33:56;;;;;;;56.20;3.28;;;;;;;;;;5052381;28;20210;-71
2023/11/30 05:36:23;;;;;;;55.97;2.95;;;;;;;;;;5052437;28;20203;-71
2023/11/30 05:38:50;;;;;;;56.03;3.15;;;;;;;;;;5053169;28;20579;-71
2023/11/30 05:41:17;;;;;;;56.00;3.20;;;;;;;;;;5053099;28;20227;-71
2023/11/30 05:43:45;;;;;;;56.40;3.33;;;;;;;;;;5052728;28;20742;-71
2023/11/30 05:46:12;;;;;;;56.10;3.13;;;;;;;;;;5052521;28;20325;-71
2023/11/30 05:48:40;;;;;;;56.20;3.00;;;;;;;;;;5052338;28;20269;-71
2023/11/30 05:51:08;;;;;;;56.10;2.97;;;;;;;;;;5052632;28;20674;-71
2023/11/30 05:53:35;;;;;;;55.97;2.90;;;;;;;;;;5051313;28;20233;-71
2023/11/30 05:56:02;;;;;;;57.33;5.40;;;;;;;;;;5052754;28;20206;-71
2023/11/30 05:58:29;;;;;;;56.08;3.35;;;;;;;;;;5052877;28;20573;-71
2023/11/30 06:00:57;;;;;;;56.40;3.50;;;;;;;;;;5052411;28;20225;-71
2023/11/30 06:03:24;;;;;;;56.15;3.13;;;;;;;;;;5052276;28;20234;-71
2023/11/30 06:05:53;;;;;;;55.90;2.80;;;;;;;;;;5051781;28;20236;-71
2023/11/30 06:08:20;;;;;;;56.08;2.70;;;;;;;;;;5052493;28;20210;-71
2023/11/30 06:10:47;;;;;;;56.08;2.83;;;;;;;;;;5051844;28;20210;-71
2023/11/30 06:13:15;;;;;;;56.08;2.60;;;;;;;;;;5052362;28;20234;-72
2023/11/30 06:15:42;;;;;;;56.00;2.75;;;;;;;;;;5052220;28;20202;-71
2023/11/30 06:18:09;;;;;;;55.97;2.92;;;;;;;;;;5052002;28;20663;-71
2023/11/30 06:20:36;;;;;;;55.78;2.60;;;;;;;;;;5051863;28;20222;-71
2023/11/30 06:23:05;;;;;;;55.90;2.80;;;;;;;;;;5052106;28;20241;-71
2023/11/30 06:25:32;;;;;;;55.97;2.90;;;;;;;;;;5051734;28;20522;-71
2023/11/30 06:27:59;;;;;;;56.08;3.00;;;;;;;;;;5052169;28;20210;-71
2023/11/30 06:30:26;;;;;;;56.20;3.45;;;;;;;;;;5051687;28;20204;-71
2023/11/30 06:32:53;;;;;;;56.15;3.38;;;;;;;;;;5051939;28;20285;-71
2023/11/30 06:35:20;;;;;;;55.97;2.60;;;;;;;;;;5051608;28;20733;-71
2023/11/30 06:37:47;;;;;;;57.65;4.75;;;;;;;;;;5051885;28;20293;-71
2023/11/30 06:40:16;;;;;;;56.00;3.17;;;;;;;;;;5051640;28;20210;-71
2023/11/30 06:42:43;;;;;;;55.78;2.88;;;;;;;;;;5051615;28;20264;-71
2023/11/30 06:45:11;;;;;;;56.20;2.90;;;;;;;;;;5051406;28;20226;-71
2023/11/30 06:47:38;;;;;;;55.90;3.00;;;;;;;;;;5051547;28;20202;-71
2023/11/30 06:50:06;;;;;;;56.00;2.70;;;;;;;;;;5051622;28;20216;-71
2023/11/30 06:52:33;;;;;;;55.88;2.92;;;;;;;;;;5052164;28;20311;-71
2023/11/30 06:55:02;;;;;;;55.83;2.78;;;;;;;;;;5051644;28;20222;-71
2023/11/30 06:57:30;;;;;;;56.08;2.83;;;;;;;;;;5051678;28;20560;-72
2023/11/30 06:59:57;;;;;;;57.25;4.03;;;;;;;;;;5051385;28;20638;-71
2023/11/30 07:02:24;;;;;;;55.70;2.80;;;;;;;;;;5051444;28;20226;-72
2023/11/30 07:04:51;;;;;;;56.33;3.15;;;;;;;;;;5051229;28;20208;-72
2023/11/30 07:07:18;;;;;;;55.78;2.90;;;;;;;;;;5051426;28;20211;-71
2023/11/30 07:09:46;;;;;;;56.67;3.78;;;;;;;;;;5051091;28;20706;-71
2023/11/30 07:12:13;;;;;;;55.97;2.70;;;;;;;;;;5051117;28;20222;-71
2023/11/30 07:14:41;;;;;;;56.00;2.92;;;;;;;;;;5051532;28;20216;-71
2023/11/30 07:17:08;;;;;;;55.88;2.60;;;;;;;;;;5051518;28;20203;-71
2023/11/30 07:19:35;;;;;;;55.90;2.75;;;;;;;;;;5051273;28;20207;-71
2023/11/30 07:22:02;;;;;;;56.67;3.92;;;;;;;;;;5051125;28;20321;-72
2023/11/30 07:24:30;;;;;;;56.00;3.10;;;;;;;;;;5051158;28;20577;-71
2023/11/30 07:26:57;;;;;;;55.58;2.40;;;;;;;;;;5051104;28;20218;-71
2023/11/30 07:29:25;;;;;;;55.78;2.78;;;;;;;;;;5051055;28;20206;-71
2023/11/30 07:31:53;;;;;;;55.90;2.60;;;;;;;;;;5050939;28;20227;-71
2023/11/30 07:34:20;;;;;;;56.13;3.15;;;;;;;;;;5050912;28;20214;-72
2023/11/30 07:36:47;;;;;;;55.80;2.70;;;;;;;;;;5051160;28;20203;-71
2023/11/30 07:39:15;;;;;;;56.03;3.33;;;;;;;;;;5051024;28;20213;-71
2023/11/30 07:41:42;;;;;;;55.97;3.45;;;;;;;;;;5051139;28;20313;-71
2023/11/30 07:44:09;;;;;;;56.00;2.95;;;;;;;;;;5051117;28;20210;-71
2023/11/30 07:46:36;;;;;;;55.80;2.75;;;;;;;;;;5051062;28;20210;-71
2023/11/30 07:49:04;;;;;;;57.55;3.33;;;;;;;;;;5051000;28;20207;-71
2023/11/30 07:51:31;;;;;;;55.78;2.95;;;;;;;;;;5050787;28;20215;-71
2023/11/30 07:53:58;;;;;;;55.95;3.20;;;;;;;;;;5050841;28;20208;-72
2023/11/30 07:56:26;;;;;;;56.10;3.20;;;;;;;;;;5051074;28;20215;-72
2023/11/30 07:58:53;;;;;;;56.05;3.15;;;;;;;;;;5051156;28;20213;-72
2023/11/30 08:01:20;;;;;;;57.58;3.70;;;;;;;;;;5066323;28;20290;-72
2023/11/30 08:03:48;;;;;;;56.58;3.15;;;;;;;;;;5068268;28;20207;-71
2023/11/30 08:06:16;;;;;;;56.17;3.33;;;;;;;;;;5070709;28;20211;-72
2023/11/30 08:08:43;;;;;;;55.90;2.90;;;;;;;;;;5071919;28;20286;-72
2023/11/30 08:11:12;;;;;;;56.00;2.80;;;;;;;;;;5071617;28;20298;-72
2023/11/30 08:13:39;;;;;;;56.00;2.50;;;;;;;;;;5070152;28;20229;-71
2023/11/30 08:16:07;;;;;;;55.80;3.00;;;;;;;;;;5073691;28;20202;-71
2023/11/30 08:18:34;;;;;;;56.00;2.80;;;;;;;;;;5076610;28;20194;-72
2023/11/30 08:21:02;;;;;;;55.80;2.88;;;;;;;;;;5076375;28;20220;-71
2023/11/30 08:23:33;;;;;;;55.80;2.75;;;;;;;;;;5076199;28;20207;-72
2023/11/30 08:26:02;;;;;;;56.10;2.85;;;;;;;;;;5076987;28;20207;-72
2023/11/30 08:28:29;;;;;;;55.78;2.83;;;;;;;;;;5076028;28;20222;-72
2023/11/30 08:31:00;;;;;;;58.05;3.20;;;;;;;;;;5075496;28;20301;-73
2023/11/30 08:33:27;;;;;;;55.90;2.97;;;;;;;;;;5074997;28;20263;-72
2023/11/30 08:35:54;;;;;;;55.75;2.80;;;;;;;;;;5077167;28;20265;-72
2023/11/30 08:38:22;;;;;;;55.80;3.30;;;;;;;;;;5077543;28;20222;-72
2023/11/30 08:40:51;;;;;;;55.80;2.80;;;;;;;;;;5073203;28;20206;-72
2023/11/30 08:43:18;;;;;;;55.83;2.65;;;;;;;;;;5057125;28;20233;-72
2023/11/30 08:45:45;;;;;;;55.67;2.83;;;;;;;;;;5056436;28;20217;-72
2023/11/30 08:48:12;;;;;;;55.65;2.90;;;;;;;;;;5055765;28;20582;-72
2023/11/30 08:50:39;;;;;;;56.10;2.60;;;;;;;;;;5055869;28;20666;-72
2023/11/30 08:53:07;;;;;;;55.90;2.95;;;;;;;;;;5055633;28;20219;-71
2023/11/30 08:55:34;;;;;;;55.78;2.75;;;;;;;;;;5055837;28;20244;-72
2023/11/30 08:58:03;;;;;;;56.25;2.90;;;;;;;;;;5055434;28;20686;-72
2023/11/30 09:00:30;;;;;;;59.05;4.03;;;;;;;;;;5054902;28;20571;-72
2023/11/30 09:02:57;;;;;;;55.67;2.70;;;;;;;;;;5055577;28;20246;-71
2023/11/30 09:05:24;;;;;;;55.50;2.70;;;;;;;;;;5056234;28;20265;-70
2023/11/30 09:07:51;;;;;;;56.28;3.50;;;;;;;;;;5054725;28;20206;-71
2023/11/30 09:10:19;;;;;;;55.78;2.78;;;;;;;;;;5054190;28;20217;-71
2023/11/30 09:12:47;;;;;;;56.25;3.65;;;;;;;;;;5054418;28;20641;-70
2023/11/30 09:15:15;;;;;;;55.78;2.60;;;;;;;;;;5054614;28;20213;-71
2023/11/30 09:17:44;;;;;;;55.60;2.20;;;;;;;;;;5054500;28;20280;-70
2023/11/30 09:20:11;;;;;;;56.20;2.75;;;;;;;;;;5054189;28;20269;-70
2023/11/30 09:22:39;;;;;;;55.80;2.70;;;;;;;;;;5055959;28;20231;-70
2023/11/30 09:25:07;;;;;;;55.70;3.30;;;;;;;;;;5054253;28;20246;-70
2023/11/30 09:27:34;;;;;;;55.90;2.97;;;;;;;;;;5054104;28;20202;-70
2023/11/30 09:30:02;;;;;;;55.95;2.90;;;;;;;;;;5054637;28;20217;-70
2023/11/30 09:32:30;;;;;;;55.75;2.92;;;;;;;;;;5054432;28;20300;-70
2023/11/30 09:34:58;;;;;;;57.30;3.03;;;;;;;;;;5054415;28;20212;-70
2023/11/30 09:37:25;;;;;;;55.90;2.63;;;;;;;;;;5053897;28;20211;-70
2023/11/30 09:39:52;;;;;;;55.67;2.67;;;;;;;;;;5053494;28;20208;-70
2023/11/30 09:42:19;;;;;;;55.47;2.50;;;;;;;;;;5053113;28;20230;-70
2023/11/30 09:44:46;;;;;;;55.80;2.60;;;;;;;;;;5053116;28;20456;-70
2023/11/30 09:47:13;;;;;;;55.67;2.55;;;;;;;;;;5053225;28;20218;-70
2023/11/30 09:49:42;;;;;;;55.80;3.07;;;;;;;;;;5053182;28;20214;-70
2023/11/30 09:52:09;;;;;;;55.70;2.80;;;;;;;;;;5052969;28;20477;-70
2023/11/30 09:54:36;;;;;;;56.70;3.60;;;;;;;;;;5052842;28;21060;-70
2023/11/30 09:57:04;;;;;;;55.80;2.53;;;;;;;;;;5053241;28;20639;-70
2023/11/30 09:59:31;;;;;;;55.78;2.50;;;;;;;;;;5052947;28;20445;-70
2023/11/30 10:02:00;;;;;;;55.80;2.60;;;;;;;;;;5052495;28;20231;-70
2023/11/30 10:04:27;;;;;;;55.53;2.50;;;;;;;;;;5052728;28;20537;-70
2023/11/30 10:06:56;;;;;;;56.00;2.80;;;;;;;;;;5052747;28;20452;-70
2023/11/30 10:09:23;;;;;;;55.70;2.70;;;;;;;;;;5052476;28;20460;-70
2023/11/30 10:11:52;;;;;;;56.37;3.23;;;;;;;;;;5052832;28;20473;-70
2023/11/30 10:14:19;;;;;;;55.70;2.55;;;;;;;;;;5052594;28;20460;-70
2023/11/30 10:16:46;;;;;;;55.70;2.50;;;;;;;;;;5052523;28;20208;-70
2023/11/30 10:19:13;;;;;;;55.90;2.70;;;;;;;;;;5052481;28;20210;-70
2023/11/30 10:21:41;;;;;;;55.53;2.63;;;;;;;;;;5043999;28;20474;-70
2023/11/30 10:24:10;;;;;;;55.97;2.87;;;;;;;;;;5052345;28;20458;-70
2023/11/30 10:26:38;;;;;;;55.80;2.57;;;;;;;;;;5052465;28;20533;-70
2023/11/30 10:29:06;;;;;;;56.10;2.57;;;;;;;;;;5052345;28;20472;-70
2023/11/30 10:31:36;;;;;;;55.70;2.60;;;;;;;;;;5052133;28;20470;-70
2023/11/30 10:34:07;;;;;;;58.57;3.90;;;;;;;;;;5052140;28;20472;-70
2023/11/30 10:36:34;;;;;;;55.67;2.77;;;;;;;;;;5052304;28;21079;-70
2023/11/30 10:39:03;;;;;;;55.70;2.27;;;;;;;;;;5051695;28;20445;-70
2023/11/30 10:41:41;;;;;;;55.47;2.30;;;;;;;;;;5052070;28;20460;-70
2023/11/30 10:44:09;;;;;;;55.80;2.20;;;;;;;;;;5051865;28;20522;-70
2023/11/30 10:46:37;;;;;;;56.72;3.50;;;;;;;;;;5051924;28;20452;-70
2023/11/30 10:49:04;;;;;;;55.60;2.35;;;;;;;;;;5051916;28;20913;-70
2023/11/30 10:51:31;;;;;;;55.70;3.13;;;;;;;;;;5051751;28;20206;-70
2023/11/30 10:54:03;;;;;;;55.67;3.03;;;;;;;;;;5051766;28;20450;-70
2023/11/30 10:56:30;;;;;;;56.27;3.37;;;;;;;;;;5051773;28;20492;-70
2023/11/30 10:59:00;;;;;;;55.80;2.90;;;;;;;;;;5051540;28;20460;-70
2023/11/30 11:01:27;;;;;;;55.40;2.27;;;;;;;;;;5051499;28;20536;-70
2023/11/30 11:03:56;;;;;;;55.70;2.87;;;;;;;;;;5051875;28;21009;-70
2023/11/30 11:06:25;;;;;;;55.60;2.50;;;;;;;;;;5051427;28;20450;-70
2023/11/30 11:08:59;;;;;;;57.37;2.97;;;;;;;;;;5051560;28;20884;-70
2023/11/30 11:11:29;;;;;;;56.23;3.20;;;;;;;;;;5050723;28;20604;-71
2023/11/30 11:13:56;;;;;;;56.73;2.57;;;;;;;;;;5050669;28;20447;-71
2023/11/30 11:16:35;;;;;;;56.10;3.63;;;;;;;;;;5050825;28;20460;-71
2023/11/30 11:19:04;;;;;;;55.63;2.60;;;;;;;;;;5051410;28;20453;-71
2023/11/30 11:21:36;;;;;;;55.33;2.23;;;;;;;;;;5050538;28;20457;-71
2023/11/30 11:24:04;;;;;;;56.87;2.80;;;;;;;;;;5050480;28;20517;-70
2023/11/30 11:26:41;;;;;;;55.43;2.20;;;;;;;;;;5050006;28;20799;-71
2023/11/30 11:29:08;;;;;;;55.67;2.30;;;;;;;;;;5050595;28;20458;-70
2023/11/30 11:31:36;;;;;;;56.00;2.80;;;;;;;;;;5050034;28;21063;-71
2023/11/30 11:34:04;;;;;;;55.70;2.60;;;;;;;;;;5050793;28;20453;-71
2023/11/30 11:36:35;;;;;;;55.63;2.60;;;;;;;;;;5050577;28;20446;-71
2023/11/30 11:39:03;;;;;;;55.63;2.50;;;;;;;;;;5050420;28;20476;-71
2023/11/30 11:41:30;;;;;;;55.57;2.30;;;;;;;;;;5050411;28;20461;-71
2023/11/30 11:43:57;;;;;;;55.80;2.47;;;;;;;;;;5050132;28;20490;-71
2023/11/30 11:46:24;;;;;;;55.57;2.33;;;;;;;;;;5050269;28;20819;-71
2023/11/30 11:48:54;;;;;;;55.60;2.10;;;;;;;;;;5050386;28;20458;-71
2023/11/30 11:51:22;;;;;;;55.57;2.20;;;;;;;;;;5048876;28;20451;-71
2023/11/30 11:53:49;;;;;;;55.47;2.00;;;;;;;;;;5050517;28;20441;-71
2023/11/30 11:56:16;;;;;;;55.60;2.30;;;;;;;;;;5050544;28;20968;-71
2023/11/30 11:58:44;;;;;;;55.47;2.00;;;;;;;;;;5049445;28;20532;-72
2023/11/30 12:01:11;;;;;;;56.73;2.57;;;;;;;;;;5050591;28;20476;-71
2023/11/30 12:03:45;;;;;;;55.40;2.50;;;;;;;;;;5050027;28;21109;-71
2023/11/30 12:06:14;;;;;;;55.33;2.30;;;;;;;;;;5050843;28;20464;-72
2023/11/30 12:08:42;;;;;;;57.30;2.50;;;;;;;;;;5009637;28;1186658;-73
2023/11/30 12:11:10;;;;;;;55.50;2.40;;;;;;;;;;5051721;28;20211;-72
2023/11/30 12:13:38;;;;;;;55.80;2.80;;;;;;;;;;5051073;28;20884;-71
2023/11/30 12:16:06;;;;;;;55.93;2.20;;;;;;;;;;5051242;28;20456;-72
2023/11/30 12:18:33;;;;;;;56.03;2.70;;;;;;;;;;5051302;28;20457;-72
2023/11/30 12:21:00;;;;;;;56.77;2.50;;;;;;;;;;5051315;28;20586;-72
2023/11/30 12:23:28;;;;;;;55.70;2.43;;;;;;;;;;5050823;28;20493;-70
2023/11/30 12:25:56;;;;;;;55.70;2.37;;;;;;;;;;5050670;28;20456;-70
2023/11/30 12:28:23;;;;;;;56.40;2.50;;;;;;;;;;5050400;28;20553;-71
2023/11/30 12:30:50;;;;;;;56.43;3.97;;;;;;;;;;5050435;28;20464;-70
2023/11/30 12:33:17;;;;;;;55.53;2.10;;;;;;;;;;5050472;28;20475;-70
2023/11/30 12:35:44;;;;;;;56.37;2.80;;;;;;;;;;5050589;28;20461;-70
2023/11/30 12:38:13;;;;;;;56.30;2.75;;;;;;;;;;5050771;28;20450;-72
2023/11/30 12:40:41;;;;;;;55.67;2.57;;;;;;;;;;5050468;28;20212;-70
2023/11/30 12:43:09;;;;;;;55.57;3.10;;;;;;;;;;5050863;28;20489;-71
2023/11/30 12:45:36;;;;;;;57.27;3.30;;;;;;;;;;5050479;28;20465;-71
2023/11/30 12:48:03;;;;;;;55.60;2.40;;;;;;;;;;5050300;28;20976;-72
2023/11/30 12:50:30;;;;;;;58.37;3.33;;;;;;;;;;5050083;28;20597;-71
2023/11/30 12:52:57;;;;;;;55.67;3.10;;;;;;;;;;5048787;28;20986;-71
2023/11/30 12:55:25;;;;;;;55.47;2.40;;;;;;;;;;5050285;28;20450;-71
2023/11/30 12:57:53;;;;;;;55.70;2.97;;;;;;;;;;5050426;28;20460;-71
2023/11/30 13:00:20;;;;;;;59.20;3.67;;;;;;;;;;5050292;28;20455;-71
2023/11/30 13:02:48;;;;;;;55.47;2.17;;;;;;;;;;5052224;28;20475;-70
2023/11/30 13:05:15;;;;;;;55.67;2.80;;;;;;;;;;5053826;28;20957;-70
2023/11/30 13:07:43;;;;;;;55.97;3.00;;;;;;;;;;5053857;28;20454;-70
2023/11/30 13:10:11;;;;;;;56.17;3.37;;;;;;;;;;5053634;28;20457;-70
2023/11/30 13:12:38;;;;;;;55.77;2.83;;;;;;;;;;5053486;28;20527;-70
2023/11/30 13:15:11;;;;;;;55.97;3.37;;;;;;;;;;5053627;28;20953;-71
2023/11/30 13:17:38;;;;;;;55.90;2.67;;;;;;;;;;5053875;28;20449;-70
2023/11/30 13:20:08;;;;;;;56.10;3.33;;;;;;;;;;5053432;28;20490;-70
2023/11/30 13:22:35;;;;;;;55.90;2.40;;;;;;;;;;5053318;28;20469;-71
2023/11/30 13:25:02;;;;;;;56.93;3.10;;;;;;;;;;5053306;28;20208;-70
2023/11/30 13:27:29;;;;;;;55.70;3.07;;;;;;;;;;5053792;28;20453;-70
2023/11/30 13:29:56;;;;;;;55.77;2.67;;;;;;;;;;5053593;28;20452;-70
2023/11/30 13:32:25;;;;;;;55.80;2.90;;;;;;;;;;5053322;28;20458;-70
2023/11/30 13:34:52;;;;;;;57.60;3.17;;;;;;;;;;5053297;28;20450;-70
2023/11/30 13:37:19;;;;;;;56.27;3.23;;;;;;;;;;5053467;28;20446;-70
2023/11/30 13:39:46;;;;;;;55.77;2.67;;;;;;;;;;5052790;28;20448;-70
2023/11/30 13:42:13;;;;;;;55.60;2.20;;;;;;;;;;5053389;28;20828;-71
2023/11/30 13:44:40;;;;;;;56.00;2.40;;;;;;;;;;5052991;28;20485;-71
2023/11/30 13:47:08;;;;;;;55.60;2.60;;;;;;;;;;5053310;28;20487;-70
2023/11/30 13:49:36;;;;;;;55.60;2.30;;;;;;;;;;5052942;28;20493;-71
2023/11/30 13:52:03;;;;;;;55.57;3.13;;;;;;;;;;5052982;28;20474;-71
2023/11/30 13:54:30;;;;;;;55.53;2.50;;;;;;;;;;5052670;28;20894;-71
2023/11/30 13:56:58;;;;;;;55.80;2.73;;;;;;;;;;5052997;28;20485;-71
2023/11/30 13:59:25;;;;;;;55.77;2.40;;;;;;;;;;5052690;28;20453;-71
2023/11/30 14:01:52;;;;;;;56.20;3.17;;;;;;;;;;5052662;28;20543;-71
2023/11/30 14:04:20;;;;;;;55.87;2.70;;;;;;;;;;5052614;28;20569;-71
2023/11/30 14:06:49;;;;;;;55.60;2.60;;;;;;;;;;5052533;28;20450;-71
2023/11/30 14:09:25;;;;;;;55.77;2.50;;;;;;;;;;5052550;28;20491;-71
2023/11/30 14:11:53;;;;;;;56.10;2.57;;;;;;;;;;5052605;28;20469;-71
2023/11/30 14:14:20;;;;;;;55.80;2.50;;;;;;;;;;5051649;28;20450;-70
2023/11/30 14:16:47;;;;;;;55.63;2.60;;;;;;;;;;5052438;28;20449;-70
2023/11/30 14:19:14;;;;;;;56.20;3.03;;;;;;;;;;5052535;28;20450;-70
2023/11/30 14:21:41;;;;;;;55.70;2.43;;;;;;;;;;5052526;28;20461;-70
2023/11/30 14:24:10;;;;;;;55.67;2.80;;;;;;;;;;5052560;28;20497;-70
2023/11/30 14:26:37;;;;;;;56.37;2.60;;;;;;;;;;5052367;28;20540;-71
2023/11/30 14:29:04;;;;;;;56.67;2.63;;;;;;;;;;5052632;28;20486;-71
2023/11/30 14:31:32;;;;;;;55.83;3.10;;;;;;;;;;5052184;28;20451;-71
2023/11/30 14:33:59;;;;;;;55.60;2.50;;;;;;;;;;5052318;28;20487;-70